createdAt,value
2022-09-05T00:01:40.010Z,101192.13
2022-09-05T00:04:48.731Z,101200.97
2022-09-05T00:07:59.116Z,101195.91
2022-09-05T00:11:40.659Z,101205.50
2022-09-05T00:14:36.716Z,101192.56
2022-09-05T00:20:21.968Z,101203.06
2022-09-05T00:24:23.378Z,101195.47
2022-09-05T00:25:30.663Z,101201.50
2022-09-05T00:28:43.023Z,101201.50
2022-09-05T00:31:57.373Z,101203.31
2022-09-05T00:35:12.897Z,101205.31
2022-09-05T00:38:16.970Z,101193.97
2022-09-05T00:41:19.488Z,101198.47
2022-09-05T00:44:24.338Z,101192.25
2022-09-05T00:47:29.710Z,101192.44
2022-09-05T00:50:41.923Z,101196.97
2022-09-05T00:54:10.269Z,101198.81
2022-09-05T00:57:18.876Z,101198.81
2022-09-05T01:00:33.920Z,101209.19
2022-09-05T01:03:47.852Z,101202.22
2022-09-05T01:06:59.424Z,101202.47
2022-09-05T01:10:07.947Z,101201.72
2022-09-05T01:13:10.380Z,101202.87
2022-09-05T01:16:13.006Z,101198.53
2022-09-05T01:19:24.197Z,101195.09
2022-09-05T01:23:08.598Z,101196.03
2022-09-05T01:26:11.206Z,101197.72
2022-09-05T01:29:19.936Z,101195.44
2022-09-05T01:32:46.238Z,101184.25
2022-09-05T01:35:53.499Z,101189.66
2022-09-05T01:40:14.715Z,101198.31
2022-09-05T01:42:42.302Z,101197.59
2022-09-05T01:45:47.171Z,101196.09
2022-09-05T01:49:02.580Z,101199.69
2022-09-05T01:52:25.183Z,101196.28
2022-09-05T01:56:05.803Z,101205.19
2022-09-05T01:59:13.654Z,101205.28
2022-09-05T02:02:52.029Z,101208.00
2022-09-05T02:06:20.790Z,101206.37
2022-09-05T02:09:26.379Z,101196.06
2022-09-05T02:12:40.055Z,101199.66
2022-09-05T02:15:45.184Z,101206.72
2022-09-05T02:19:21.032Z,101204.06
2022-09-05T02:22:27.774Z,101196.25
2022-09-05T02:26:02.674Z,101193.53
2022-09-05T02:29:29.129Z,101203.19
2022-09-05T02:32:43.194Z,101201.47
2022-09-05T02:35:55.480Z,101203.28
2022-09-05T02:45:03.449Z,101192.84
2022-09-05T02:45:07.530Z,101202.59
2022-09-05T02:46:15.762Z,101195.91
2022-09-05T02:52:21.294Z,101201.22
2022-09-05T02:57:38.558Z,101210.75
2022-09-05T02:57:39.932Z,101203.00
2022-09-05T02:59:57.535Z,101209.87
2022-09-05T03:03:17.204Z,101215.16
2022-09-05T03:06:34.481Z,101209.16
2022-09-05T03:09:46.580Z,101210.09
2022-09-05T03:13:15.456Z,101210.16
2022-09-05T03:16:40.573Z,101210.19
2022-09-05T03:20:08.718Z,101216.41
2022-09-05T03:23:33.180Z,101219.19
2022-09-05T03:26:54.979Z,101212.28
2022-09-05T03:30:00.009Z,101214.03
2022-09-05T03:33:20.906Z,101216.75
2022-09-05T03:36:54.395Z,101223.63
2022-09-05T03:40:15.274Z,101225.50
2022-09-05T03:43:21.425Z,101226.41
2022-09-05T03:46:29.262Z,101229.22
2022-09-05T03:53:30.979Z,101231.91
2022-09-05T03:57:16.381Z,101236.34
2022-09-05T03:57:23.702Z,101239.81
2022-09-05T03:59:57.149Z,101238.97
2022-09-05T04:07:02.017Z,101242.44
2022-09-05T04:08:17.883Z,101244.91
2022-09-05T04:10:08.067Z,101245.75
2022-09-05T04:13:19.844Z,101253.53
2022-09-05T04:16:25.263Z,101246.59
2022-09-05T04:19:37.180Z,101254.41
2022-09-05T04:22:58.336Z,101258.78
2022-09-05T04:26:09.287Z,101267.25
2022-09-05T04:29:23.305Z,101274.16
2022-09-05T04:32:44.690Z,101273.22
2022-09-05T04:35:56.425Z,101278.34
2022-09-05T04:39:23.537Z,101277.50
2022-09-05T04:42:27.802Z,101277.41
2022-09-05T04:45:34.620Z,101277.09
2022-09-05T04:49:00.047Z,101284.87
2022-09-05T04:52:19.651Z,101293.44
2022-09-05T04:55:40.744Z,101293.31
2022-09-05T05:00:35.105Z,101296.69
2022-09-05T05:06:14.076Z,101298.09
2022-09-05T05:09:30.708Z,101304.56
2022-09-05T05:17:59.129Z,101305.94
2022-09-05T05:18:16.111Z,101313.44
2022-09-05T05:19:45.166Z,101313.22
2022-09-05T05:23:07.657Z,101314.53
2022-09-05T05:26:20.825Z,101320.97
2022-09-05T05:29:23.327Z,101323.03
2022-09-05T05:32:46.114Z,101322.56
2022-09-05T05:35:49.938Z,101316.81
2022-09-05T05:38:58.120Z,101313.41
2022-09-05T05:42:19.391Z,101325.00
2022-09-05T05:45:26.368Z,101315.41
2022-09-05T05:48:34.748Z,101319.50
2022-09-05T05:52:02.124Z,101321.31
2022-09-05T05:55:36.246Z,101328.97
2022-09-05T05:58:44.233Z,101320.25
2022-09-05T06:02:04.725Z,101324.13
2022-09-05T06:05:26.030Z,101327.56
2022-09-05T06:14:48.197Z,101317.12
2022-09-05T06:15:04.633Z,101322.16
2022-09-05T06:16:27.438Z,101327.22
2022-09-05T06:20:34.466Z,101328.16
2022-09-05T06:23:36.592Z,101328.97
2022-09-05T06:27:00.870Z,101329.97
2022-09-05T06:30:20.638Z,101330.41
2022-09-05T06:33:32.581Z,101329.66
2022-09-05T06:36:44.154Z,101329.06
2022-09-05T06:39:53.662Z,101326.97
2022-09-05T06:43:18.776Z,101327.22
2022-09-05T06:46:54.994Z,101321.56
2022-09-05T06:49:54.984Z,101322.34
2022-09-05T06:53:26.551Z,101326.25
2022-09-05T06:56:36.760Z,101324.00
2022-09-05T06:59:58.305Z,101323.38
2022-09-05T07:03:00.891Z,101328.34
2022-09-05T07:06:19.869Z,101328.78
2022-09-05T07:09:46.470Z,101347.69
2022-09-05T07:12:56.252Z,101330.06
2022-09-05T07:16:07.456Z,101343.78
2022-09-05T07:19:28.253Z,101334.78
2022-09-05T07:22:47.173Z,101335.16
2022-09-05T07:25:54.379Z,101338.97
2022-09-05T07:29:00.167Z,101334.75
2022-09-05T07:32:06.320Z,101327.31
2022-09-05T07:35:13.291Z,101329.38
2022-09-05T07:38:18.793Z,101324.47
2022-09-05T07:41:32.220Z,101327.00
2022-09-05T07:44:38.765Z,101330.03
2022-09-05T07:47:43.993Z,101321.81
2022-09-05T07:56:46.795Z,101327.81
2022-09-05T07:56:50.754Z,101318.16
2022-09-05T07:57:51.692Z,101317.59
2022-09-05T08:00:56.649Z,101315.53
2022-09-05T08:04:02.499Z,101312.81
2022-09-05T08:07:47.511Z,101311.22
2022-09-05T08:11:25.598Z,101315.31
2022-09-05T08:14:44.218Z,101312.75
2022-09-05T08:18:09.615Z,101318.28
2022-09-05T08:21:13.973Z,101316.53
2022-09-05T08:24:26.016Z,101312.31
2022-09-05T08:27:34.306Z,101307.31
2022-09-05T08:30:45.512Z,101298.66
2022-09-05T08:33:51.275Z,101306.03
2022-09-05T08:36:56.954Z,101302.75
2022-09-05T08:40:10.155Z,101305.91
2022-09-05T08:45:53.588Z,101302.06
2022-09-05T08:46:50.379Z,101299.19
2022-09-05T08:50:12.369Z,101297.87
2022-09-05T08:53:46.348Z,101294.87
2022-09-05T08:56:55.819Z,101297.94
2022-09-05T09:00:20.080Z,101297.31
2022-09-05T09:03:29.279Z,101298.53
2022-09-05T09:06:57.979Z,101293.38
2022-09-05T09:10:25.541Z,101286.09
2022-09-05T09:13:52.383Z,101278.13
2022-09-05T09:17:02.190Z,101276.69
2022-09-05T09:20:23.288Z,101275.81
2022-09-05T09:23:31.826Z,101271.84
2022-09-05T09:26:42.619Z,101266.03
2022-09-05T09:29:45.212Z,101269.09
2022-09-05T09:32:49.342Z,101268.72
2022-09-05T09:36:07.813Z,101265.56
2022-09-05T09:39:37.647Z,101262.31
2022-09-05T09:42:39.670Z,101259.25
2022-09-05T09:46:00.399Z,101258.88
2022-09-05T09:49:28.359Z,101264.72
2022-09-05T09:52:49.284Z,101266.97
2022-09-05T09:55:52.113Z,101262.41
2022-09-05T09:59:09.868Z,101263.75
2022-09-05T10:05:57.614Z,101257.19
2022-09-05T10:10:45.890Z,101262.06
2022-09-05T10:10:46.170Z,101253.94
2022-09-05T10:13:18.457Z,101264.16
2022-09-05T10:16:33.899Z,101250.91
2022-09-05T10:23:07.776Z,101247.28
2022-09-05T10:26:10.475Z,101248.69
2022-09-05T10:29:36.805Z,101246.38
2022-09-05T10:35:09.843Z,101234.03
2022-09-05T10:36:39.758Z,101240.50
2022-09-05T10:39:47.018Z,101227.16
2022-09-05T10:42:59.679Z,101227.59
2022-09-05T10:46:33.919Z,101221.84
2022-09-05T10:49:42.396Z,101223.25
2022-09-05T10:52:51.284Z,101219.03
2022-09-05T10:56:02.435Z,101212.13
2022-09-05T11:02:24.274Z,101203.53
2022-09-05T11:02:38.358Z,101204.09
2022-09-05T11:05:48.155Z,101204.25
2022-09-05T11:08:59.660Z,101192.75
2022-09-05T11:12:22.288Z,101185.97
2022-09-05T11:15:35.296Z,101200.31
2022-09-05T11:18:54.880Z,101203.94
2022-09-05T11:22:06.509Z,101190.09
2022-09-05T11:25:39.602Z,101191.03
2022-09-05T11:29:00.498Z,101187.22
2022-09-05T11:35:35.546Z,101185.38
2022-09-05T11:39:50.725Z,101183.06
2022-09-05T11:39:54.296Z,101176.59
2022-09-05T11:43:16.701Z,101171.12
2022-09-05T11:46:37.228Z,101173.66
2022-09-05T11:49:57.977Z,101177.34
2022-09-05T11:53:34.047Z,101176.09
2022-09-05T11:56:46.012Z,101169.06
2022-09-05T12:00:32.540Z,101159.47
2022-09-05T12:03:59.156Z,101163.56
2022-09-05T12:07:30.390Z,101164.03
2022-09-05T12:10:53.241Z,101160.75
2022-09-05T12:13:59.365Z,101156.25
2022-09-05T12:17:06.447Z,101162.47
2022-09-05T12:20:22.075Z,101160.03
2022-09-05T12:24:24.194Z,101159.09
2022-09-05T12:27:42.036Z,101148.69
2022-09-05T12:30:42.379Z,101142.84
2022-09-05T12:36:05.683Z,101140.25
2022-09-05T12:40:03.077Z,101138.87
2022-09-05T12:41:43.897Z,101138.84
2022-09-05T12:44:42.438Z,101136.41
2022-09-05T12:48:05.639Z,101125.91
2022-09-05T12:51:46.447Z,101121.47
2022-09-05T12:54:47.655Z,101125.47
2022-09-05T13:02:55.091Z,101123.25
2022-09-05T13:03:07.997Z,101116.59
2022-09-05T13:04:46.434Z,101120.97
2022-09-05T13:08:02.592Z,101115.19
2022-09-05T13:14:49.123Z,101107.38
2022-09-05T13:14:56.949Z,101103.66
2022-09-05T13:17:59.570Z,101102.59
2022-09-05T13:21:06.233Z,101099.59
2022-09-05T13:24:12.059Z,101097.87
2022-09-05T13:27:23.464Z,101095.63
2022-09-05T13:33:59.695Z,101091.97
2022-09-05T13:38:05.337Z,101098.13
2022-09-05T13:38:42.044Z,101102.28
2022-09-05T13:41:00.166Z,101084.28
2022-09-05T13:44:26.962Z,101087.13
2022-09-05T13:47:50.453Z,101095.41
2022-09-05T13:50:55.438Z,101087.31
2022-09-05T13:54:00.739Z,101083.28
2022-09-05T13:57:21.586Z,101083.44
2022-09-05T14:00:38.124Z,101078.91
2022-09-05T14:04:08.711Z,101073.97
2022-09-05T14:07:45.100Z,101064.66
2022-09-05T14:11:00.306Z,101068.03
2022-09-05T14:14:12.070Z,101059.06
2022-09-05T14:21:18.846Z,101059.06
2022-09-05T14:24:28.219Z,101062.44
2022-09-05T14:27:32.673Z,101055.72
2022-09-05T14:33:22.516Z,101050.63
2022-09-05T14:37:51.595Z,101047.53
2022-09-05T14:38:01.386Z,101045.53
2022-09-05T14:41:28.328Z,101047.75
2022-09-05T14:44:49.859Z,101042.56
2022-09-05T14:48:03.852Z,101036.50
2022-09-05T14:51:25.988Z,101040.13
2022-09-05T15:02:39.767Z,101034.63
2022-09-05T15:02:55.254Z,101042.62
2022-09-05T15:04:49.800Z,101036.91
2022-09-05T15:08:01.233Z,101035.22
2022-09-05T15:12:20.853Z,101035.69
2022-09-05T15:14:32.501Z,101033.87
2022-09-05T15:17:36.060Z,101023.53
2022-09-05T15:20:40.246Z,101025.62
2022-09-05T15:23:46.126Z,101027.03
2022-09-05T15:26:53.969Z,101023.41
2022-09-05T15:29:57.620Z,101028.09
2022-09-05T15:33:18.745Z,101027.41
2022-09-05T15:36:35.491Z,101026.69
2022-09-05T15:39:37.872Z,101019.25
2022-09-05T15:42:57.222Z,101016.69
2022-09-05T15:46:03.749Z,101017.00
2022-09-05T15:49:10.662Z,101019.56
2022-09-05T15:52:16.021Z,101006.47
2022-09-05T15:55:20.113Z,101012.78
2022-09-05T15:58:22.523Z,101019.50
2022-09-05T16:01:58.535Z,101009.53
2022-09-05T16:10:26.967Z,101015.03
2022-09-05T16:10:49.541Z,101006.94
2022-09-05T16:12:14.370Z,101004.00
2022-09-05T16:17:59.055Z,101001.25
2022-09-05T16:23:16.961Z,101003.81
2022-09-05T16:23:34.525Z,100999.53
2022-09-05T16:25:34.531Z,100987.97
2022-09-05T16:28:40.694Z,100989.22
2022-09-05T16:31:48.508Z,100996.03
2022-09-05T16:34:52.545Z,100989.91
2022-09-05T16:37:55.123Z,100986.31
2022-09-05T16:41:12.841Z,100990.06
2022-09-05T16:44:27.856Z,100981.34
2022-09-05T16:47:39.782Z,100983.56
2022-09-05T16:50:54.765Z,100979.00
2022-09-05T16:54:12.887Z,100969.00
2022-09-05T16:57:17.583Z,100978.75
2022-09-05T17:00:19.897Z,100974.00
2022-09-05T17:03:31.621Z,100976.41
2022-09-05T17:06:36.794Z,100979.25
2022-09-05T17:09:41.348Z,100979.72
2022-09-05T17:12:44.206Z,100983.50
2022-09-05T17:15:51.490Z,100984.28
2022-09-05T17:18:59.466Z,100982.56
2022-09-05T17:26:04.599Z,100988.25
2022-09-05T17:29:31.428Z,100982.37
2022-09-05T17:32:54.261Z,100987.06
2022-09-05T17:36:06.657Z,100992.38
2022-09-05T17:39:44.347Z,100989.44
2022-09-05T17:42:47.824Z,100997.19
2022-09-05T17:46:11.984Z,100997.91
2022-09-05T17:49:36.811Z,101001.94
2022-09-05T17:53:25.705Z,100997.19
2022-09-05T17:56:36.851Z,100998.53
2022-09-05T17:59:39.174Z,101005.00
2022-09-05T18:02:56.415Z,101014.44
2022-09-05T18:06:04.286Z,101015.84
2022-09-05T18:13:11.636Z,101031.28
2022-09-05T18:15:54.745Z,101029.28
2022-09-05T18:19:33.089Z,101032.34
2022-09-05T18:22:29.785Z,101029.13
2022-09-05T18:25:38.276Z,101026.25
2022-09-05T18:28:47.180Z,101030.13
2022-09-05T18:31:51.943Z,101026.00
2022-09-05T18:35:27.891Z,101040.66
2022-09-05T18:38:50.890Z,101041.91
2022-09-05T18:42:26.337Z,101037.22
2022-09-05T18:45:38.064Z,101035.88
2022-09-05T18:49:57.571Z,101042.59
2022-09-05T18:52:35.513Z,101040.03
2022-09-05T18:56:12.883Z,101053.38
2022-09-05T18:59:24.098Z,101049.59
2022-09-05T19:02:51.264Z,101042.44
2022-09-05T19:06:34.602Z,101046.78
2022-09-05T19:09:28.380Z,101039.91
2022-09-05T19:12:38.308Z,101043.28
2022-09-05T19:15:49.847Z,101047.44
2022-09-05T19:19:10.038Z,101040.09
2022-09-05T19:23:09.157Z,101037.16
2022-09-05T19:25:37.775Z,101040.06
2022-09-05T19:36:47.008Z,101040.53
2022-09-05T19:36:51.245Z,101036.13
2022-09-05T19:37:13.411Z,101036.22
2022-09-05T19:41:27.106Z,101041.00
2022-09-05T19:47:38.382Z,101037.63
2022-09-05T19:47:40.242Z,101039.50
2022-09-05T19:49:13.055Z,101041.00
2022-09-05T19:52:16.441Z,101034.41
2022-09-05T19:55:20.833Z,101035.44
2022-09-05T19:58:24.449Z,101035.16
2022-09-05T20:01:27.414Z,101040.81
2022-09-05T20:04:36.551Z,101037.63
2022-09-05T20:07:48.203Z,101042.38
2022-09-05T20:10:59.734Z,101038.69
2022-09-05T20:14:21.765Z,101037.19
2022-09-05T20:17:32.174Z,101042.62
2022-09-05T20:20:34.661Z,101045.41
2022-09-05T20:23:45.607Z,101050.00
2022-09-05T20:26:48.164Z,101042.72
2022-09-05T20:29:56.203Z,101040.75
2022-09-05T20:33:00.820Z,101052.12
2022-09-05T20:42:45.725Z,101049.69
2022-09-05T20:43:25.123Z,101047.97
2022-09-05T20:43:35.019Z,101043.28
2022-09-05T20:52:57.186Z,101045.00
2022-09-05T20:54:16.436Z,101035.00
2022-09-05T20:54:21.142Z,101039.41
2022-09-05T20:57:22.938Z,101037.47
2022-09-05T21:00:25.281Z,101037.09
2022-09-05T21:03:36.622Z,101044.00
2022-09-05T21:06:41.946Z,101042.25
2022-09-05T21:09:50.444Z,101043.09
2022-09-05T21:12:57.387Z,101046.47
2022-09-05T21:16:00.369Z,101048.94
2022-09-05T21:19:02.900Z,101046.81
2022-09-05T21:22:07.473Z,101042.91
2022-09-05T21:25:15.583Z,101050.63
2022-09-05T21:28:36.983Z,101045.56
2022-09-05T21:31:40.768Z,101046.38
2022-09-05T21:34:55.034Z,101051.38
2022-09-05T21:37:58.631Z,101054.13
2022-09-05T21:41:01.920Z,101050.22
2022-09-05T21:47:35.132Z,101051.59
2022-09-05T21:47:48.240Z,101046.56
2022-09-05T21:50:52.378Z,101046.06
2022-09-05T21:59:08.230Z,101047.69
2022-09-05T21:59:20.626Z,101049.91
2022-09-05T22:00:55.389Z,101038.16
2022-09-05T22:03:58.432Z,101053.25
2022-09-05T22:07:04.698Z,101057.00
2022-09-05T22:10:07.812Z,101048.34
2022-09-05T22:13:10.140Z,101057.09
2022-09-05T22:16:14.920Z,101046.47
2022-09-05T22:19:22.584Z,101051.94
2022-09-05T22:22:26.392Z,101043.84
2022-09-05T22:25:30.514Z,101047.59
2022-09-05T22:28:35.136Z,101043.31
2022-09-05T22:31:37.828Z,101036.28
2022-09-05T22:34:40.548Z,101040.78
2022-09-05T22:37:45.791Z,101044.41
2022-09-05T22:40:49.353Z,101036.75
2022-09-05T22:43:51.749Z,101040.59
2022-09-05T22:46:54.309Z,101038.75
2022-09-05T22:49:56.686Z,101041.75
2022-09-05T22:52:59.344Z,101034.84
2022-09-05T22:56:06.648Z,101035.84
2022-09-05T22:59:14.733Z,101029.31
2022-09-05T23:02:17.095Z,101028.72
2022-09-05T23:05:19.716Z,101033.91
2022-09-05T23:08:22.081Z,101029.28
2022-09-05T23:11:24.732Z,101017.75
2022-09-05T23:14:27.055Z,101027.66
2022-09-05T23:17:29.691Z,101031.81
2022-09-05T23:20:32.622Z,101029.63
2022-09-05T23:23:38.713Z,101021.75
2022-09-05T23:26:43.352Z,101013.37
2022-09-05T23:29:46.071Z,101013.31
2022-09-05T23:32:49.535Z,101006.00
2022-09-05T23:35:53.064Z,101004.25
2022-09-05T23:38:55.360Z,101009.50
2022-09-05T23:41:57.962Z,101013.31
2022-09-05T23:45:00.323Z,101005.91
2022-09-05T23:48:04.099Z,101011.94
2022-09-05T23:51:07.328Z,101004.53
2022-09-05T23:54:12.093Z,101004.28
2022-09-05T23:57:14.390Z,101009.03
